Time,TemperatureF,DewpointF,PressureIn,WindDirection,WindDirectionDegrees,WindSpeedMPH,WindSpeedGustMPH,Humidity,HourlyPrecipIn,Conditions,Clouds,dailyrainin,SolarRadiationWatts/m^2,SoftwareType,DateUTC
2013-07-28 00:02:00,56.0,-99.9,-100.00,South,174,3.0,8.0,0,0.00,,,0.01,0.000000,,2013-07-28 07:02:00,
2013-07-28 00:32:00,56.0,-99.9,-100.00,SSW,193,1.0,8.0,0,0.00,,,0.01,0.000000,,2013-07-28 07:32:00,
2013-07-28 00:43:00,56.0,-99.9,-100.00,SSW,193,1.0,8.0,0,0.00,,,0.01,0.000000,,2013-07-28 07:43:00,
2013-07-28 00:53:00,56.0,-99.9,-100.00,SSW,193,1.0,8.0,0,0.00,,,0.01,0.000000,,2013-07-28 07:53:00,
2013-07-28 01:02:00,56.0,-99.9,-100.00,SSW,193,1.0,8.0,0,0.00,,,0.01,0.000000,,2013-07-28 08:02:00,
2013-07-28 01:33:00,57.0,-99.9,-100.00,South,183,2.0,7.0,0,0.00,,,0.01,0.000000,,2013-07-28 08:33:00,
2013-07-28 01:43:00,57.0,-99.9,-100.00,South,183,2.0,7.0,0,0.00,,,0.01,0.000000,,2013-07-28 08:43:00,
2013-07-28 01:53:00,57.0,-99.9,-100.00,South,183,2.0,7.0,0,0.00,,,0.01,0.000000,,2013-07-28 08:53:00,
2013-07-28 02:02:00,57.0,-99.9,-100.00,South,183,2.0,7.0,0,0.00,,,0.01,0.000000,,2013-07-28 09:02:00,
2013-07-28 02:32:00,53.0,-99.9,-100.00,WNW,290,0.0,7.0,0,0.00,,,0.01,0.000000,,2013-07-28 09:32:00,
2013-07-28 02:43:00,53.0,-99.9,-100.00,WNW,290,0.0,7.0,0,0.00,,,0.01,0.000000,,2013-07-28 09:43:00,
2013-07-28 02:53:00,53.0,-99.9,-100.00,WNW,290,0.0,7.0,0,0.00,,,0.01,0.000000,,2013-07-28 09:53:00,
2013-07-28 03:02:00,53.0,-99.9,-100.00,WNW,290,0.0,7.0,0,0.00,,,0.01,0.000000,,2013-07-28 10:02:00,
2013-07-28 03:33:00,55.0,-99.9,-100.00,South,178,3.0,4.0,0,0.00,,,0.01,0.000000,,2013-07-28 10:33:00,
2013-07-28 03:42:00,55.0,-99.9,-100.00,South,178,3.0,4.0,0,0.00,,,0.01,0.000000,,2013-07-28 10:42:00,
2013-07-28 03:53:00,55.0,-99.9,-100.00,South,178,3.0,4.0,0,0.00,,,0.01,0.000000,,2013-07-28 10:53:00,
2013-07-28 04:02:00,55.0,-99.9,-100.00,South,178,3.0,4.0,0,0.00,,,0.01,0.000000,,2013-07-28 11:02:00,
2013-07-28 04:03:00,56.0,-99.9,-100.00,South,180,1.0,5.0,0,0.00,,,0.01,0.000000,,2013-07-28 11:03:00,
2013-07-28 04:22:00,56.0,-99.9,-100.00,South,180,1.0,5.0,0,0.00,,,0.01,0.000000,,2013-07-28 11:22:00,
2013-07-28 04:33:00,56.0,-99.9,-100.00,South,180,1.0,5.0,0,0.00,,,0.01,0.000000,,2013-07-28 11:33:00,
2013-07-28 04:43:00,56.0,-99.9,-100.00,South,180,1.0,5.0,0,0.00,,,0.01,0.000000,,2013-07-28 11:43:00,
2013-07-28 04:54:00,56.0,-99.9,-100.00,South,180,1.0,5.0,0,0.00,,,0.01,0.000000,,2013-07-28 11:54:00,
2013-07-28 05:03:00,55.0,-99.9,-100.00,South,184,0.0,5.0,0,0.00,,,0.01,0.000000,,2013-07-28 12:03:00,
2013-07-28 05:33:00,55.0,-99.9,-100.00,South,184,0.0,5.0,0,0.00,,,0.01,0.000000,,2013-07-28 12:33:00,
2013-07-28 05:43:00,55.0,-99.9,-100.00,South,184,0.0,5.0,0,0.00,,,0.01,0.000000,,2013-07-28 12:43:00,
2013-07-28 05:53:00,55.0,-99.9,-100.00,South,184,0.0,5.0,0,0.00,,,0.01,0.000000,,2013-07-28 12:53:00,
2013-07-28 06:32:00,55.0,-99.9,-100.00,SSE,160,0.0,4.0,0,0.00,,,0.01,6.000000,,2013-07-28 13:32:00,
2013-07-28 06:43:00,55.0,-99.9,-100.00,SSE,160,0.0,4.0,0,0.00,,,0.01,6.000000,,2013-07-28 13:43:00,
2013-07-28 06:53:00,55.0,-99.9,-100.00,SSE,160,0.0,4.0,0,0.00,,,0.01,6.000000,,2013-07-28 13:53:00,
2013-07-28 07:02:00,55.0,-99.9,-100.00,SSE,160,0.0,4.0,0,0.00,,,0.01,6.000000,,2013-07-28 14:02:00,
2013-07-28 08:33:00,67.0,-99.9,-100.00,NE,52,4.0,13.0,0,0.00,,,0.01,359.000000,,2013-07-28 15:33:00,
2013-07-28 08:43:00,67.0,-99.9,-100.00,NE,52,4.0,13.0,0,0.00,,,0.01,359.000000,,2013-07-28 15:43:00,
2013-07-28 08:53:00,67.0,-99.9,-100.00,NE,52,4.0,13.0,0,0.00,,,0.01,359.000000,,2013-07-28 15:53:00,
2013-07-28 09:33:00,70.0,-99.9,-100.00,SSE,147,5.0,13.0,0,0.00,,,0.01,515.000000,,2013-07-28 16:33:00,
2013-07-28 09:43:00,70.0,-99.9,-100.00,SSE,147,5.0,13.0,0,0.00,,,0.01,515.000000,,2013-07-28 16:43:00,
2013-07-28 09:53:00,70.0,-99.9,-100.00,SSE,147,5.0,13.0,0,0.00,,,0.01,515.000000,,2013-07-28 16:53:00,
2013-07-28 10:02:00,70.0,-99.9,-100.00,SSE,147,5.0,13.0,0,0.00,,,0.01,515.000000,,2013-07-28 17:02:00,
2013-07-28 10:03:00,72.0,-99.9,-100.00,WNW,289,6.0,14.0,0,0.00,,,0.01,779.000000,,2013-07-28 17:03:00,
2013-07-28 10:33:00,72.0,-99.9,-100.00,WNW,289,6.0,14.0,0,0.00,,,0.01,779.000000,,2013-07-28 17:33:00,
2013-07-28 10:44:00,72.0,-99.9,-100.00,WNW,289,6.0,14.0,0,0.00,,,0.01,779.000000,,2013-07-28 17:44:00,
2013-07-28 10:53:00,72.0,-99.9,-100.00,WNW,289,6.0,14.0,0,0.00,,,0.01,779.000000,,2013-07-28 17:53:00,
2013-07-28 11:03:00,73.0,-99.9,-100.00,South,179,7.0,16.0,0,0.00,,,0.01,900.000000,,2013-07-28 18:03:00,
2013-07-28 11:33:00,73.0,-99.9,-100.00,South,179,7.0,16.0,0,0.00,,,0.01,900.000000,,2013-07-28 18:33:00,
2013-07-28 11:43:00,73.0,-99.9,-100.00,South,179,7.0,16.0,0,0.00,,,0.01,900.000000,,2013-07-28 18:43:00,
2013-07-28 11:52:00,73.0,-99.9,-100.00,South,179,7.0,16.0,0,0.00,,,0.01,900.000000,,2013-07-28 18:52:00,
2013-07-28 12:03:00,74.0,-99.9,-100.00,SSW,211,7.0,20.0,0,0.00,,,0.01,1121.000000,,2013-07-28 19:03:00,
2013-07-28 12:33:00,74.0,-99.9,-100.00,SSW,211,7.0,20.0,0,0.00,,,0.01,1121.000000,,2013-07-28 19:33:00,
2013-07-28 12:43:00,74.0,-99.9,-100.00,SSW,211,7.0,20.0,0,0.00,,,0.01,1121.000000,,2013-07-28 19:43:00,
2013-07-28 12:53:00,74.0,-99.9,-100.00,SSW,211,7.0,20.0,0,0.00,,,0.01,1121.000000,,2013-07-28 19:53:00,
2013-07-28 13:03:00,75.0,-99.9,-100.00,ESE,113,6.0,20.0,0,0.00,,,0.01,1000.000000,,2013-07-28 20:03:00,
2013-07-28 13:23:00,75.0,-99.9,-100.00,ESE,113,6.0,20.0,0,0.00,,,0.01,1000.000000,,2013-07-28 20:23:00,
2013-07-28 13:33:00,75.0,-99.9,-100.00,ESE,113,6.0,20.0,0,0.00,,,0.01,1000.000000,,2013-07-28 20:33:00,
2013-07-28 13:43:00,75.0,-99.9,-100.00,ESE,113,6.0,20.0,0,0.00,,,0.01,1000.000000,,2013-07-28 20:43:00,
2013-07-28 13:53:00,75.0,-99.9,-100.00,ESE,113,6.0,20.0,0,0.00,,,0.01,1000.000000,,2013-07-28 20:53:00,
2013-07-28 14:33:00,75.0,-99.9,-100.00,South,174,5.0,17.0,0,0.00,,,0.01,731.000000,,2013-07-28 21:33:00,
2013-07-28 14:44:00,75.0,-99.9,-100.00,South,174,5.0,17.0,0,0.00,,,0.01,731.000000,,2013-07-28 21:44:00,
2013-07-28 14:52:00,75.0,-99.9,-100.00,South,174,5.0,17.0,0,0.00,,,0.01,731.000000,,2013-07-28 21:52:00,
2013-07-28 15:02:00,75.0,-99.9,-100.00,South,174,5.0,17.0,0,0.00,,,0.01,731.000000,,2013-07-28 22:02:00,
2013-07-28 15:03:00,74.0,-99.9,-100.00,SE,127,3.0,17.0,0,0.00,,,0.01,691.000000,,2013-07-28 22:03:00,
2013-07-28 15:33:00,74.0,-99.9,-100.00,SE,127,3.0,17.0,0,0.00,,,0.01,691.000000,,2013-07-28 22:33:00,
2013-07-28 15:43:00,74.0,-99.9,-100.00,SE,127,3.0,17.0,0,0.00,,,0.01,691.000000,,2013-07-28 22:43:00,
2013-07-28 15:52:00,74.0,-99.9,-100.00,SE,127,3.0,17.0,0,0.00,,,0.01,691.000000,,2013-07-28 22:52:00,
2013-07-28 16:33:00,79.0,-99.9,-100.00,West,280,7.0,16.0,0,0.00,,,0.01,855.000000,,2013-07-28 23:33:00,
2013-07-28 16:43:00,79.0,-99.9,-100.00,West,280,7.0,16.0,0,0.00,,,0.01,855.000000,,2013-07-28 23:43:00,
2013-07-28 16:53:00,79.0,-99.9,-100.00,West,280,7.0,16.0,0,0.00,,,0.01,855.000000,,2013-07-28 23:53:00,
2013-07-28 17:32:00,75.0,-99.9,-100.00,SW,216,3.0,16.0,0,-99.99,,,0.01,461.000000,,2013-07-29 00:32:00,
2013-07-28 17:43:00,75.0,-99.9,-100.00,SW,216,3.0,16.0,0,-99.99,,,0.01,461.000000,,2013-07-29 00:43:00,
2013-07-28 17:52:00,75.0,-99.9,-100.00,SW,216,3.0,16.0,0,-99.99,,,0.01,461.000000,,2013-07-29 00:52:00,
2013-07-28 18:02:00,75.0,-99.9,-100.00,SW,216,3.0,16.0,0,-99.99,,,0.01,461.000000,,2013-07-29 01:02:00,
2013-07-28 18:03:00,61.0,-99.9,-100.00,NNW,335,7.0,23.0,0,-99.99,,,0.07,123.000000,,2013-07-29 01:03:00,
2013-07-28 18:40:00,61.0,-99.9,-100.00,NNW,335,7.0,23.0,0,-99.99,,,0.07,123.000000,,2013-07-29 01:40:00,
2013-07-28 18:48:00,61.0,-99.9,-100.00,NNW,335,7.0,23.0,0,-99.99,,,0.07,123.000000,,2013-07-29 01:48:00,
2013-07-28 19:41:00,60.0,-99.9,-100.00,NNW,348,5.0,13.0,0,0.01,,,0.08,55.000000,,2013-07-29 02:41:00,
2013-07-28 20:00:00,60.0,-99.9,-100.00,NNW,348,5.0,13.0,0,0.01,,,0.08,55.000000,,2013-07-29 03:00:00,
2013-07-28 20:38:00,58.0,-99.9,-100.00,SSE,148,4.0,11.0,0,0.00,,,0.08,3.000000,,2013-07-29 03:38:00,
2013-07-28 20:58:00,58.0,-99.9,-100.00,SSE,148,4.0,11.0,0,0.00,,,0.08,3.000000,,2013-07-29 03:58:00,
2013-07-28 21:02:00,58.0,-99.9,-100.00,SSE,148,4.0,11.0,0,0.00,,,0.08,3.000000,,2013-07-29 04:02:00,
2013-07-28 21:33:00,60.0,-99.9,-100.00,South,171,5.0,11.0,0,0.00,,,0.08,0.000000,,2013-07-29 04:33:00,
2013-07-28 21:43:00,60.0,-99.9,-100.00,South,171,5.0,11.0,0,0.00,,,0.08,0.000000,,2013-07-29 04:43:00,
2013-07-28 21:53:00,60.0,-99.9,-100.00,South,171,5.0,11.0,0,0.00,,,0.08,0.000000,,2013-07-29 04:53:00,
2013-07-28 22:02:00,60.0,-99.9,-100.00,South,171,5.0,11.0,0,0.00,,,0.08,0.000000,,2013-07-29 05:02:00,
2013-07-28 22:32:00,58.0,-99.9,-100.00,SSW,211,1.0,10.0,0,0.00,,,0.07,0.000000,,2013-07-29 05:32:00,
2013-07-28 22:43:00,58.0,-99.9,-100.00,SSW,211,1.0,10.0,0,0.00,,,0.07,0.000000,,2013-07-29 05:43:00,
2013-07-28 22:53:00,58.0,-99.9,-100.00,SSW,211,1.0,10.0,0,0.00,,,0.07,0.000000,,2013-07-29 05:53:00,
2013-07-28 23:02:00,58.0,-99.9,-100.00,SSW,211,1.0,10.0,0,0.00,,,0.07,0.000000,,2013-07-29 06:02:00,
2013-07-28 23:03:00,53.0,-99.9,-100.00,SSE,160,1.0,4.0,0,0.00,,,0.07,0.000000,,2013-07-29 06:03:00,
2013-07-28 23:33:00,53.0,-99.9,-100.00,SSE,160,1.0,4.0,0,0.00,,,0.07,0.000000,,2013-07-29 06:33:00,
2013-07-28 23:43:00,53.0,-99.9,-100.00,SSE,160,1.0,4.0,0,0.00,,,0.07,0.000000,,2013-07-29 06:43:00,
2013-07-28 23:53:00,53.0,-99.9,-100.00,SSE,160,1.0,4.0,0,0.00,,,0.07,0.000000,,2013-07-29 06:53:00,